sensor_id;sensor_type;location;lat;lon;timestamp;P1;durP1;ratioP1;P2;durP2;ratioP2
15340;SDS011;7770;52.158;5.372;2022-10-04T00:02:17;22.00;;;15.30;;
15340;SDS011;7770;52.158;5.372;2022-10-04T00:05:13;20.70;;;15.10;;
15340;SDS011;7770;52.158;5.372;2022-10-04T00:08:16;21.83;;;15.53;;
15340;SDS011;7770;52.158;5.372;2022-10-04T00:11:29;17.57;;;15.37;;
15340;SDS011;7770;52.158;5.372;2022-10-04T00:14:29;23.07;;;16.37;;
15340;SDS011;7770;52.158;5.372;2022-10-04T00:17:22;17.80;;;15.33;;
15340;SDS011;7770;52.158;5.372;2022-10-04T00:34:57;21.37;;;16.17;;
15340;SDS011;7770;52.158;5.372;2022-10-04T00:43:47;19.97;;;17.23;;
15340;SDS011;7770;52.158;5.372;2022-10-04T00:46:34;20.67;;;16.07;;
15340;SDS011;7770;52.158;5.372;2022-10-04T00:49:27;26.80;;;17.20;;
15340;SDS011;7770;52.158;5.372;2022-10-04T00:52:18;23.43;;;17.27;;
15340;SDS011;7770;52.158;5.372;2022-10-04T00:55:10;20.63;;;17.43;;
15340;SDS011;7770;52.158;5.372;2022-10-04T00:58:23;21.43;;;17.10;;
15340;SDS011;7770;52.158;5.372;2022-10-04T01:01:16;19.57;;;17.40;;
15340;SDS011;7770;52.158;5.372;2022-10-04T01:04:14;21.37;;;17.20;;
15340;SDS011;7770;52.158;5.372;2022-10-04T01:07:21;22.57;;;17.50;;
15340;SDS011;7770;52.158;5.372;2022-10-04T01:10:20;22.63;;;17.27;;
15340;SDS011;7770;52.158;5.372;2022-10-04T01:16:10;23.33;;;17.53;;
15340;SDS011;7770;52.158;5.372;2022-10-04T01:22:11;22.77;;;18.07;;
15340;SDS011;7770;52.158;5.372;2022-10-04T01:28:34;22.63;;;16.97;;
15340;SDS011;7770;52.158;5.372;2022-10-04T01:31:20;23.17;;;18.20;;
15340;SDS011;7770;52.158;5.372;2022-10-04T01:34:07;22.63;;;18.50;;
15340;SDS011;7770;52.158;5.372;2022-10-04T01:36:58;22.57;;;19.00;;
15340;SDS011;7770;52.158;5.372;2022-10-04T01:39:44;22.27;;;18.33;;
15340;SDS011;7770;52.158;5.372;2022-10-04T01:42:31;23.07;;;17.87;;
15340;SDS011;7770;52.158;5.372;2022-10-04T01:45:45;21.00;;;17.63;;
15340;SDS011;7770;52.158;5.372;2022-10-04T01:48:36;21.93;;;18.30;;
15340;SDS011;7770;52.158;5.372;2022-10-04T01:51:28;24.17;;;18.37;;
15340;SDS011;7770;52.158;5.372;2022-10-04T01:54:20;22.50;;;18.63;;
15340;SDS011;7770;52.158;5.372;2022-10-04T01:57:17;21.23;;;17.60;;
15340;SDS011;7770;52.158;5.372;2022-10-04T02:00:08;23.33;;;18.37;;
15340;SDS011;7770;52.158;5.372;2022-10-04T02:02:57;20.97;;;18.10;;
15340;SDS011;7770;52.158;5.372;2022-10-04T02:05:50;22.83;;;17.90;;
15340;SDS011;7770;52.158;5.372;2022-10-04T02:08:46;24.90;;;18.63;;
15340;SDS011;7770;52.158;5.372;2022-10-04T02:11:35;27.60;;;19.07;;
15340;SDS011;7770;52.158;5.372;2022-10-04T02:14:24;24.20;;;18.90;;
15340;SDS011;7770;52.158;5.372;2022-10-04T02:17:39;23.33;;;19.13;;
15340;SDS011;7770;52.158;5.372;2022-10-04T02:20:27;22.33;;;19.87;;
15340;SDS011;7770;52.158;5.372;2022-10-04T02:23:14;24.07;;;20.33;;
15340;SDS011;7770;52.158;5.372;2022-10-04T02:26:03;26.30;;;21.07;;
15340;SDS011;7770;52.158;5.372;2022-10-04T02:28:54;23.57;;;20.50;;
15340;SDS011;7770;52.158;5.372;2022-10-04T02:31:40;23.80;;;21.23;;
15340;SDS011;7770;52.158;5.372;2022-10-04T02:34:45;23.37;;;20.87;;
15340;SDS011;7770;52.158;5.372;2022-10-04T02:37:32;24.13;;;21.57;;
15340;SDS011;7770;52.158;5.372;2022-10-04T02:40:20;26.03;;;20.83;;
15340;SDS011;7770;52.158;5.372;2022-10-04T02:43:19;25.03;;;21.37;;
15340;SDS011;7770;52.158;5.372;2022-10-04T02:46:27;25.47;;;22.03;;
15340;SDS011;7770;52.158;5.372;2022-10-04T02:55:24;25.77;;;22.40;;
15340;SDS011;7770;52.158;5.372;2022-10-04T02:58:15;25.57;;;22.83;;
15340;SDS011;7770;52.158;5.372;2022-10-04T03:01:04;28.57;;;23.37;;
15340;SDS011;7770;52.158;5.372;2022-10-04T03:03:50;25.70;;;22.97;;
15340;SDS011;7770;52.158;5.372;2022-10-04T03:06:38;26.20;;;23.60;;
15340;SDS011;7770;52.158;5.372;2022-10-04T03:09:24;27.50;;;24.53;;
15340;SDS011;7770;52.158;5.372;2022-10-04T03:12:11;30.27;;;24.73;;
15340;SDS011;7770;52.158;5.372;2022-10-04T03:14:58;27.53;;;24.73;;
15340;SDS011;7770;52.158;5.372;2022-10-04T03:17:44;27.63;;;24.77;;
15340;SDS011;7770;52.158;5.372;2022-10-04T03:20:30;30.40;;;25.90;;
15340;SDS011;7770;52.158;5.372;2022-10-04T03:23:21;30.43;;;27.20;;
15340;SDS011;7770;52.158;5.372;2022-10-04T03:26:18;36.30;;;29.13;;
15340;SDS011;7770;52.158;5.372;2022-10-04T03:29:24;31.13;;;27.83;;
15340;SDS011;7770;52.158;5.372;2022-10-04T03:32:14;34.87;;;28.97;;
15340;SDS011;7770;52.158;5.372;2022-10-04T03:35:03;34.97;;;29.87;;
15340;SDS011;7770;52.158;5.372;2022-10-04T03:37:56;35.63;;;31.07;;
15340;SDS011;7770;52.158;5.372;2022-10-04T03:40:46;34.50;;;30.90;;
15340;SDS011;7770;52.158;5.372;2022-10-04T03:43:52;35.80;;;30.93;;
15340;SDS011;7770;52.158;5.372;2022-10-04T03:46:40;35.37;;;31.70;;
15340;SDS011;7770;52.158;5.372;2022-10-04T03:49:32;36.47;;;30.97;;
15340;SDS011;7770;52.158;5.372;2022-10-04T03:52:24;36.40;;;32.53;;
15340;SDS011;7770;52.158;5.372;2022-10-04T03:55:16;35.23;;;31.40;;
15340;SDS011;7770;52.158;5.372;2022-10-04T03:58:03;36.17;;;32.17;;
15340;SDS011;7770;52.158;5.372;2022-10-04T04:04:05;35.87;;;31.57;;
15340;SDS011;7770;52.158;5.372;2022-10-04T04:07:23;37.17;;;33.07;;
15340;SDS011;7770;52.158;5.372;2022-10-04T04:10:23;37.13;;;33.10;;
15340;SDS011;7770;52.158;5.372;2022-10-04T04:13:30;38.90;;;32.90;;
15340;SDS011;7770;52.158;5.372;2022-10-04T04:16:30;38.63;;;33.93;;
15340;SDS011;7770;52.158;5.372;2022-10-04T04:19:17;37.90;;;33.73;;
15340;SDS011;7770;52.158;5.372;2022-10-04T04:22:10;38.70;;;34.13;;
15340;SDS011;7770;52.158;5.372;2022-10-04T04:25:02;43.50;;;34.53;;
15340;SDS011;7770;52.158;5.372;2022-10-04T04:27:59;40.67;;;34.73;;
15340;SDS011;7770;52.158;5.372;2022-10-04T04:34:30;39.37;;;34.23;;
15340;SDS011;7770;52.158;5.372;2022-10-04T04:37:19;40.50;;;34.50;;
15340;SDS011;7770;52.158;5.372;2022-10-04T04:40:22;40.33;;;34.37;;
15340;SDS011;7770;52.158;5.372;2022-10-04T04:43:11;40.70;;;34.20;;
15340;SDS011;7770;52.158;5.372;2022-10-04T04:46:04;38.57;;;33.47;;
15340;SDS011;7770;52.158;5.372;2022-10-04T04:48:56;40.10;;;34.70;;
15340;SDS011;7770;52.158;5.372;2022-10-04T04:51:49;38.40;;;34.50;;
15340;SDS011;7770;52.158;5.372;2022-10-04T04:54:36;37.63;;;33.57;;
15340;SDS011;7770;52.158;5.372;2022-10-04T04:57:23;36.53;;;32.73;;
15340;SDS011;7770;52.158;5.372;2022-10-04T05:00:13;35.00;;;31.30;;
15340;SDS011;7770;52.158;5.372;2022-10-04T05:03:17;35.43;;;31.83;;
15340;SDS011;7770;52.158;5.372;2022-10-04T05:06:04;36.73;;;31.93;;
15340;SDS011;7770;52.158;5.372;2022-10-04T05:09:21;34.67;;;31.00;;
15340;SDS011;7770;52.158;5.372;2022-10-04T05:12:15;37.87;;;31.47;;
15340;SDS011;7770;52.158;5.372;2022-10-04T05:15:07;35.87;;;32.27;;
15340;SDS011;7770;52.158;5.372;2022-10-04T05:17:54;35.50;;;31.57;;
15340;SDS011;7770;52.158;5.372;2022-10-04T05:20:41;38.53;;;32.07;;
15340;SDS011;7770;52.158;5.372;2022-10-04T05:23:33;36.87;;;32.43;;
15340;SDS011;7770;52.158;5.372;2022-10-04T05:26:23;37.90;;;32.97;;
15340;SDS011;7770;52.158;5.372;2022-10-04T05:29:20;37.50;;;32.40;;
15340;SDS011;7770;52.158;5.372;2022-10-04T05:35:14;39.27;;;34.33;;
15340;SDS011;7770;52.158;5.372;2022-10-04T05:43:51;42.20;;;34.47;;
15340;SDS011;7770;52.158;5.372;2022-10-04T05:46:38;37.07;;;33.03;;
15340;SDS011;7770;52.158;5.372;2022-10-04T05:49:25;42.37;;;34.03;;
15340;SDS011;7770;52.158;5.372;2022-10-04T05:52:29;42.20;;;35.47;;
15340;SDS011;7770;52.158;5.372;2022-10-04T05:55:22;38.23;;;34.23;;
15340;SDS011;7770;52.158;5.372;2022-10-04T05:59:14;37.67;;;33.57;;
15340;SDS011;7770;52.158;5.372;2022-10-04T06:04:58;41.07;;;33.37;;
15340;SDS011;7770;52.158;5.372;2022-10-04T06:08:12;41.33;;;33.93;;
15340;SDS011;7770;52.158;5.372;2022-10-04T06:21:35;37.23;;;33.33;;
15340;SDS011;7770;52.158;5.372;2022-10-04T06:24:40;36.80;;;32.53;;
15340;SDS011;7770;52.158;5.372;2022-10-04T06:27:54;37.40;;;33.23;;
15340;SDS011;7770;52.158;5.372;2022-10-04T06:56:43;29.13;;;25.43;;
15340;SDS011;7770;52.158;5.372;2022-10-04T07:03:03;25.87;;;22.63;;
15340;SDS011;7770;52.158;5.372;2022-10-04T07:05:58;27.27;;;21.50;;
15340;SDS011;7770;52.158;5.372;2022-10-04T07:08:49;24.07;;;20.00;;
15340;SDS011;7770;52.158;5.372;2022-10-04T07:11:42;22.10;;;19.83;;
15340;SDS011;7770;52.158;5.372;2022-10-04T07:14:53;22.93;;;19.40;;
15340;SDS011;7770;52.158;5.372;2022-10-04T07:17:44;20.30;;;18.10;;
15340;SDS011;7770;52.158;5.372;2022-10-04T07:20:33;20.47;;;18.27;;
15340;SDS011;7770;52.158;5.372;2022-10-04T07:23:25;21.70;;;18.17;;
15340;SDS011;7770;52.158;5.372;2022-10-04T07:26:27;20.57;;;17.67;;
15340;SDS011;7770;52.158;5.372;2022-10-04T07:29:23;20.20;;;17.57;;
15340;SDS011;7770;52.158;5.372;2022-10-04T07:32:24;18.77;;;15.87;;
15340;SDS011;7770;52.158;5.372;2022-10-04T07:38:19;18.40;;;14.47;;
15340;SDS011;7770;52.158;5.372;2022-10-04T07:41:17;18.03;;;15.03;;
15340;SDS011;7770;52.158;5.372;2022-10-04T07:44:12;15.37;;;13.67;;
15340;SDS011;7770;52.158;5.372;2022-10-04T07:47:19;15.97;;;12.27;;
15340;SDS011;7770;52.158;5.372;2022-10-04T07:53:14;10.90;;;9.80;;
15340;SDS011;7770;52.158;5.372;2022-10-04T07:56:19;13.10;;;9.27;;
15340;SDS011;7770;52.158;5.372;2022-10-04T07:59:21;11.73;;;8.97;;
15340;SDS011;7770;52.158;5.372;2022-10-04T08:05:35;10.43;;;9.20;;
15340;SDS011;7770;52.158;5.372;2022-10-04T08:11:49;10.70;;;9.60;;
15340;SDS011;7770;52.158;5.372;2022-10-04T08:15:36;10.90;;;9.77;;
15340;SDS011;7770;52.158;5.372;2022-10-04T08:18:33;12.23;;;10.03;;
15340;SDS011;7770;52.158;5.372;2022-10-04T08:21:48;10.20;;;9.10;;
15340;SDS011;7770;52.158;5.372;2022-10-04T08:24:48;11.97;;;9.37;;
15340;SDS011;7770;52.158;5.372;2022-10-04T08:34:20;11.27;;;9.33;;
15340;SDS011;7770;52.158;5.372;2022-10-04T08:47:59;12.47;;;9.40;;
15340;SDS011;7770;52.158;5.372;2022-10-04T09:07:26;10.90;;;8.77;;
15340;SDS011;7770;52.158;5.372;2022-10-04T09:16:46;9.67;;;8.67;;
15340;SDS011;7770;52.158;5.372;2022-10-04T09:23:10;9.77;;;8.80;;
15340;SDS011;7770;52.158;5.372;2022-10-04T09:32:52;9.00;;;8.03;;
15340;SDS011;7770;52.158;5.372;2022-10-04T09:36:24;9.50;;;8.33;;
15340;SDS011;7770;52.158;5.372;2022-10-04T09:46:54;10.27;;;8.00;;
15340;SDS011;7770;52.158;5.372;2022-10-04T09:53:28;10.10;;;8.20;;
15340;SDS011;7770;52.158;5.372;2022-10-04T09:57:04;11.17;;;9.07;;
15340;SDS011;7770;52.158;5.372;2022-10-04T10:00:14;11.93;;;10.33;;
15340;SDS011;7770;52.158;5.372;2022-10-04T10:03:19;12.00;;;9.53;;
15340;SDS011;7770;52.158;5.372;2022-10-04T10:06:44;10.80;;;8.80;;
15340;SDS011;7770;52.158;5.372;2022-10-04T10:17:54;10.00;;;8.67;;
15340;SDS011;7770;52.158;5.372;2022-10-04T10:24:32;10.57;;;8.80;;
15340;SDS011;7770;52.158;5.372;2022-10-04T10:27:48;10.20;;;7.53;;
15340;SDS011;7770;52.158;5.372;2022-10-04T10:34:03;8.53;;;7.73;;
15340;SDS011;7770;52.158;5.372;2022-10-04T10:44:03;9.82;;;7.70;;
15340;SDS011;7770;52.158;5.372;2022-10-04T10:50:40;9.02;;;7.55;;
15340;SDS011;7770;52.158;5.372;2022-10-04T10:57:05;9.98;;;8.55;;
15340;SDS011;7770;52.158;5.372;2022-10-04T11:00:19;8.70;;;7.85;;
15340;SDS011;7770;52.158;5.372;2022-10-04T11:13:17;9.65;;;6.60;;
15340;SDS011;7770;52.158;5.372;2022-10-04T11:24:01;7.80;;;6.68;;
15340;SDS011;7770;52.158;5.372;2022-10-04T11:30:31;9.53;;;7.00;;
15340;SDS011;7770;52.158;5.372;2022-10-04T11:34:09;9.40;;;7.10;;
15340;SDS011;7770;52.158;5.372;2022-10-04T11:38:09;7.63;;;6.53;;
15340;SDS011;7770;52.158;5.372;2022-10-04T11:41:36;8.10;;;7.30;;
15340;SDS011;7770;52.158;5.372;2022-10-04T11:44:51;7.50;;;6.30;;
15340;SDS011;7770;52.158;5.372;2022-10-04T11:48:13;8.93;;;6.87;;
15340;SDS011;7770;52.158;5.372;2022-10-04T11:54:29;8.63;;;6.30;;
15340;SDS011;7770;52.158;5.372;2022-10-04T12:10:38;10.93;;;6.40;;
15340;SDS011;7770;52.158;5.372;2022-10-04T12:16:31;8.67;;;7.77;;
15340;SDS011;7770;52.158;5.372;2022-10-04T12:30:21;14.63;;;8.97;;
15340;SDS011;7770;52.158;5.372;2022-10-04T12:36:35;12.10;;;8.03;;
15340;SDS011;7770;52.158;5.372;2022-10-04T13:05:59;9.50;;;7.00;;
15340;SDS011;7770;52.158;5.372;2022-10-04T13:09:00;7.23;;;6.53;;
15340;SDS011;7770;52.158;5.372;2022-10-04T13:21:57;11.47;;;7.60;;
15340;SDS011;7770;52.158;5.372;2022-10-04T13:25:18;9.43;;;7.63;;
15340;SDS011;7770;52.158;5.372;2022-10-04T13:28:38;11.70;;;7.97;;
15340;SDS011;7770;52.158;5.372;2022-10-04T13:31:51;9.87;;;8.27;;
15340;SDS011;7770;52.158;5.372;2022-10-04T13:35:09;9.80;;;8.37;;
15340;SDS011;7770;52.158;5.372;2022-10-04T13:38:20;11.80;;;8.17;;
15340;SDS011;7770;52.158;5.372;2022-10-04T13:41:30;10.13;;;8.07;;
15340;SDS011;7770;52.158;5.372;2022-10-04T13:45:02;8.83;;;7.90;;
15340;SDS011;7770;52.158;5.372;2022-10-04T13:47:55;9.73;;;8.10;;
15340;SDS011;7770;52.158;5.372;2022-10-04T14:01:07;11.00;;;8.57;;
15340;SDS011;7770;52.158;5.372;2022-10-04T14:27:47;10.23;;;7.50;;
15340;SDS011;7770;52.158;5.372;2022-10-04T14:41:06;11.73;;;7.63;;
15340;SDS011;7770;52.158;5.372;2022-10-04T15:01:27;9.53;;;7.77;;
15340;SDS011;7770;52.158;5.372;2022-10-04T15:07:42;11.03;;;7.87;;
15340;SDS011;7770;52.158;5.372;2022-10-04T15:10:55;10.77;;;7.50;;
15340;SDS011;7770;52.158;5.372;2022-10-04T15:13:53;10.00;;;8.30;;
15340;SDS011;7770;52.158;5.372;2022-10-04T15:16:44;12.37;;;8.23;;
15340;SDS011;7770;52.158;5.372;2022-10-04T15:22:51;10.30;;;7.70;;
15340;SDS011;7770;52.158;5.372;2022-10-04T15:25:45;10.30;;;7.77;;
15340;SDS011;7770;52.158;5.372;2022-10-04T15:34:59;8.73;;;7.50;;
15340;SDS011;7770;52.158;5.372;2022-10-04T15:41:02;11.43;;;7.60;;
15340;SDS011;7770;52.158;5.372;2022-10-04T15:49:56;10.70;;;7.67;;
15340;SDS011;7770;52.158;5.372;2022-10-04T15:56:58;10.70;;;7.80;;
15340;SDS011;7770;52.158;5.372;2022-10-04T16:06:40;8.27;;;7.40;;
15340;SDS011;7770;52.158;5.372;2022-10-04T16:09:44;8.87;;;7.13;;
15340;SDS011;7770;52.158;5.372;2022-10-04T16:15:35;11.20;;;7.33;;
15340;SDS011;7770;52.158;5.372;2022-10-04T16:21:32;10.93;;;7.90;;
15340;SDS011;7770;52.158;5.372;2022-10-04T16:27:39;10.20;;;7.53;;
15340;SDS011;7770;52.158;5.372;2022-10-04T16:34:07;8.80;;;7.90;;
15340;SDS011;7770;52.158;5.372;2022-10-04T16:42:57;10.43;;;8.20;;
15340;SDS011;7770;52.158;5.372;2022-10-04T16:49:15;10.00;;;7.90;;
15340;SDS011;7770;52.158;5.372;2022-10-04T16:56:17;9.37;;;7.87;;
15340;SDS011;7770;52.158;5.372;2022-10-04T16:59:11;8.67;;;7.77;;
15340;SDS011;7770;52.158;5.372;2022-10-04T17:02:12;11.00;;;8.17;;
15340;SDS011;7770;52.158;5.372;2022-10-04T17:05:44;12.40;;;8.33;;
15340;SDS011;7770;52.158;5.372;2022-10-04T17:11:39;11.07;;;8.20;;
15340;SDS011;7770;52.158;5.372;2022-10-04T17:20:53;16.73;;;13.90;;
15340;SDS011;7770;52.158;5.372;2022-10-04T17:30:11;9.87;;;8.87;;
15340;SDS011;7770;52.158;5.372;2022-10-04T17:33:07;16.67;;;9.90;;
15340;SDS011;7770;52.158;5.372;2022-10-04T17:36:20;11.33;;;8.33;;
15340;SDS011;7770;52.158;5.372;2022-10-04T17:42:55;10.43;;;8.60;;
15340;SDS011;7770;52.158;5.372;2022-10-04T17:45:55;11.47;;;8.40;;
15340;SDS011;7770;52.158;5.372;2022-10-04T17:49:08;9.97;;;8.10;;
15340;SDS011;7770;52.158;5.372;2022-10-04T17:52:46;10.33;;;8.80;;
15340;SDS011;7770;52.158;5.372;2022-10-04T17:55:58;15.07;;;13.03;;
15340;SDS011;7770;52.158;5.372;2022-10-04T17:58:48;11.60;;;10.03;;
15340;SDS011;7770;52.158;5.372;2022-10-04T18:01:40;9.67;;;8.60;;
15340;SDS011;7770;52.158;5.372;2022-10-04T18:04:31;17.67;;;15.03;;
15340;SDS011;7770;52.158;5.372;2022-10-04T18:07:22;10.30;;;8.13;;
15340;SDS011;7770;52.158;5.372;2022-10-04T18:13:24;10.77;;;7.93;;
15340;SDS011;7770;52.158;5.372;2022-10-04T18:19:38;10.27;;;9.07;;
15340;SDS011;7770;52.158;5.372;2022-10-04T18:22:43;9.30;;;8.40;;
15340;SDS011;7770;52.158;5.372;2022-10-04T18:25:35;10.47;;;8.60;;
15340;SDS011;7770;52.158;5.372;2022-10-04T18:28:22;11.53;;;9.20;;
15340;SDS011;7770;52.158;5.372;2022-10-04T18:34:27;10.23;;;8.90;;
15340;SDS011;7770;52.158;5.372;2022-10-04T18:37:17;9.93;;;8.33;;
15340;SDS011;7770;52.158;5.372;2022-10-04T18:40:24;10.03;;;8.80;;
15340;SDS011;7770;52.158;5.372;2022-10-04T18:43:28;11.07;;;8.77;;
15340;SDS011;7770;52.158;5.372;2022-10-04T18:46:20;11.53;;;8.93;;
15340;SDS011;7770;52.158;5.372;2022-10-04T18:49:20;12.00;;;9.10;;
15340;SDS011;7770;52.158;5.372;2022-10-04T18:52:20;11.40;;;8.90;;
15340;SDS011;7770;52.158;5.372;2022-10-04T18:55:50;10.80;;;8.63;;
15340;SDS011;7770;52.158;5.372;2022-10-04T19:02:35;12.27;;;9.67;;
15340;SDS011;7770;52.158;5.372;2022-10-04T19:05:46;10.60;;;8.90;;
15340;SDS011;7770;52.158;5.372;2022-10-04T19:11:56;10.40;;;9.13;;
15340;SDS011;7770;52.158;5.372;2022-10-04T19:19:00;10.37;;;9.27;;
15340;SDS011;7770;52.158;5.372;2022-10-04T19:28:07;10.50;;;9.40;;
15340;SDS011;7770;52.158;5.372;2022-10-04T19:31:11;11.33;;;9.13;;
15340;SDS011;7770;52.158;5.372;2022-10-04T19:48:18;10.13;;;8.47;;
15340;SDS011;7770;52.158;5.372;2022-10-04T19:51:53;11.03;;;8.40;;
15340;SDS011;7770;52.158;5.372;2022-10-04T19:54:25;10.40;;;8.57;;
15340;SDS011;7770;52.158;5.372;2022-10-04T19:57:22;9.33;;;8.43;;
15340;SDS011;7770;52.158;5.372;2022-10-04T20:00:22;12.13;;;8.70;;
15340;SDS011;7770;52.158;5.372;2022-10-04T20:03:11;14.17;;;8.93;;
15340;SDS011;7770;52.158;5.372;2022-10-04T20:05:57;10.17;;;8.67;;
15340;SDS011;7770;52.158;5.372;2022-10-04T20:08:56;9.03;;;8.13;;
15340;SDS011;7770;52.158;5.372;2022-10-04T20:15:41;9.27;;;8.13;;
15340;SDS011;7770;52.158;5.372;2022-10-04T20:21:22;9.60;;;8.60;;
15340;SDS011;7770;52.158;5.372;2022-10-04T20:24:15;10.83;;;8.50;;
15340;SDS011;7770;52.158;5.372;2022-10-04T20:30:12;9.57;;;8.67;;
15340;SDS011;7770;52.158;5.372;2022-10-04T20:33:00;12.57;;;8.73;;
15340;SDS011;7770;52.158;5.372;2022-10-04T20:35:57;9.60;;;8.53;;
15340;SDS011;7770;52.158;5.372;2022-10-04T20:41:50;10.63;;;9.00;;
15340;SDS011;7770;52.158;5.372;2022-10-04T20:47:55;12.30;;;8.50;;
15340;SDS011;7770;52.158;5.372;2022-10-04T20:50:43;12.17;;;9.53;;
15340;SDS011;7770;52.158;5.372;2022-10-04T20:53:33;11.70;;;9.27;;
15340;SDS011;7770;52.158;5.372;2022-10-04T20:59:12;11.30;;;8.70;;
15340;SDS011;7770;52.158;5.372;2022-10-04T21:02:00;11.20;;;9.17;;
15340;SDS011;7770;52.158;5.372;2022-10-04T21:04:49;9.67;;;8.77;;
15340;SDS011;7770;52.158;5.372;2022-10-04T21:07:38;10.07;;;8.90;;
15340;SDS011;7770;52.158;5.372;2022-10-04T21:10:24;10.83;;;8.77;;
15340;SDS011;7770;52.158;5.372;2022-10-04T21:16:43;9.90;;;8.87;;
15340;SDS011;7770;52.158;5.372;2022-10-04T21:25:25;9.93;;;9.00;;
15340;SDS011;7770;52.158;5.372;2022-10-04T21:28:25;11.03;;;9.83;;
15340;SDS011;7770;52.158;5.372;2022-10-04T21:31:16;15.40;;;10.43;;
15340;SDS011;7770;52.158;5.372;2022-10-04T21:34:02;11.27;;;9.90;;
15340;SDS011;7770;52.158;5.372;2022-10-04T21:36:48;13.10;;;10.47;;
15340;SDS011;7770;52.158;5.372;2022-10-04T21:39:35;11.60;;;9.97;;
15340;SDS011;7770;52.158;5.372;2022-10-04T21:42:21;10.93;;;9.83;;
15340;SDS011;7770;52.158;5.372;2022-10-04T21:45:07;11.50;;;10.30;;
15340;SDS011;7770;52.158;5.372;2022-10-04T21:47:54;11.70;;;10.50;;
15340;SDS011;7770;52.158;5.372;2022-10-04T21:50:40;11.13;;;10.07;;
15340;SDS011;7770;52.158;5.372;2022-10-04T21:53:26;11.60;;;10.17;;
15340;SDS011;7770;52.158;5.372;2022-10-04T21:56:12;13.33;;;10.07;;
15340;SDS011;7770;52.158;5.372;2022-10-04T21:58:58;10.77;;;9.67;;
15340;SDS011;7770;52.158;5.372;2022-10-04T22:01:44;12.13;;;9.93;;
15340;SDS011;7770;52.158;5.372;2022-10-04T22:04:30;11.43;;;10.23;;
15340;SDS011;7770;52.158;5.372;2022-10-04T22:07:16;10.80;;;9.80;;
15340;SDS011;7770;52.158;5.372;2022-10-04T22:10:03;11.53;;;10.33;;
15340;SDS011;7770;52.158;5.372;2022-10-04T22:12:49;12.57;;;11.27;;
15340;SDS011;7770;52.158;5.372;2022-10-04T22:15:35;12.13;;;10.97;;
15340;SDS011;7770;52.158;5.372;2022-10-04T22:18:21;15.30;;;11.60;;
15340;SDS011;7770;52.158;5.372;2022-10-04T22:21:07;13.63;;;11.17;;
15340;SDS011;7770;52.158;5.372;2022-10-04T22:23:53;12.73;;;11.37;;
15340;SDS011;7770;52.158;5.372;2022-10-04T22:26:39;13.77;;;11.50;;
15340;SDS011;7770;52.158;5.372;2022-10-04T22:29:25;13.67;;;12.27;;
15340;SDS011;7770;52.158;5.372;2022-10-04T22:32:13;12.57;;;11.27;;
15340;SDS011;7770;52.158;5.372;2022-10-04T22:35:14;13.87;;;11.60;;
15340;SDS011;7770;52.158;5.372;2022-10-04T22:38:03;13.50;;;12.17;;
15340;SDS011;7770;52.158;5.372;2022-10-04T22:40:50;13.13;;;11.83;;
15340;SDS011;7770;52.158;5.372;2022-10-04T22:43:36;13.63;;;12.07;;
15340;SDS011;7770;52.158;5.372;2022-10-04T22:46:22;15.07;;;12.17;;
15340;SDS011;7770;52.158;5.372;2022-10-04T22:49:22;13.83;;;12.43;;
15340;SDS011;7770;52.158;5.372;2022-10-04T22:52:21;15.10;;;12.43;;
15340;SDS011;7770;52.158;5.372;2022-10-04T22:55:09;14.03;;;12.57;;
15340;SDS011;7770;52.158;5.372;2022-10-04T22:58:02;19.53;;;12.73;;
15340;SDS011;7770;52.158;5.372;2022-10-04T23:00:48;15.43;;;11.80;;
15340;SDS011;7770;52.158;5.372;2022-10-04T23:03:34;13.77;;;12.27;;
15340;SDS011;7770;52.158;5.372;2022-10-04T23:06:22;14.70;;;11.87;;
15340;SDS011;7770;52.158;5.372;2022-10-04T23:09:08;13.30;;;11.87;;
15340;SDS011;7770;52.158;5.372;2022-10-04T23:11:54;13.97;;;12.23;;
15340;SDS011;7770;52.158;5.372;2022-10-04T23:14:40;12.90;;;11.43;;
15340;SDS011;7770;52.158;5.372;2022-10-04T23:17:27;13.97;;;12.50;;
15340;SDS011;7770;52.158;5.372;2022-10-04T23:20:18;13.43;;;12.03;;
15340;SDS011;7770;52.158;5.372;2022-10-04T23:23:04;15.63;;;13.13;;
15340;SDS011;7770;52.158;5.372;2022-10-04T23:26:11;13.97;;;12.57;;
15340;SDS011;7770;52.158;5.372;2022-10-04T23:28:58;15.40;;;12.90;;
15340;SDS011;7770;52.158;5.372;2022-10-04T23:31:44;15.27;;;13.67;;
15340;SDS011;7770;52.158;5.372;2022-10-04T23:34:35;15.03;;;13.43;;
15340;SDS011;7770;52.158;5.372;2022-10-04T23:37:26;13.67;;;12.33;;
15340;SDS011;7770;52.158;5.372;2022-10-04T23:40:19;15.20;;;13.60;;
15340;SDS011;7770;52.158;5.372;2022-10-04T23:43:12;16.20;;;13.03;;
15340;SDS011;7770;52.158;5.372;2022-10-04T23:46:09;13.93;;;12.40;;
15340;SDS011;7770;52.158;5.372;2022-10-04T23:48:59;14.10;;;12.77;;
15340;SDS011;7770;52.158;5.372;2022-10-04T23:51:45;15.73;;;13.33;;
15340;SDS011;7770;52.158;5.372;2022-10-04T23:54:32;13.83;;;12.20;;
15340;SDS011;7770;52.158;5.372;2022-10-04T23:57:22;15.30;;;12.40;;
